»·PEaware :: N648CR KSGU-KRIF

N648CR :: KSGU-KRIF

FLIGHT INFORMATION

Flight Status: Arrived
Operator: Privately registered:
United States
More flights under this callsign
Pilot: James D. (19799)
Aircraft: CESSNA 172 SKYHAWK
(C172)
More flights by this aircraft type
Origin: KSGU St George Mun
United States
Destination: KRIF Richfield Mun
United States
More flights between these airports :: More routes between these airports
Route: +
File this flight plan on PilotEdge
Remarks:
Altitude:
(Current/Filed)
10,500ft
Speed:
(Current/Filed)
0kts
Departed: 08-Sep-18 02:05 PM
Arrived: 08-Sep-18 03:18 PM
Distance/Time
Traveled:
121nm/1:13
Distance/Time
To Go:
Arrived

Flight Plot

Page will automatically refresh every two minutes.

Flight plan parsing failed; only flown route is shown


Map Options




Map Legend


Flown Route
Filed Route
Departure Airport
Arrival Airport
Navaid (VOR, NDB)
Fix

Horizontal Profiles

Position Reports

Time Latitude Longitude Heading Altitude Ground
Speed
08-Sep-18 14:06 37.087586 -113.484326 20 5278ft 77kts
08-Sep-18 14:07 37.102240 -113.473391 36 5901ft 76kts
08-Sep-18 14:08 37.116640 -113.461953 28 6503ft 75kts
08-Sep-18 14:09 37.131189 -113.452337 26 7065ft 74kts
08-Sep-18 14:10 37.146776 -113.442518 26 7567ft 79kts
08-Sep-18 14:11 37.162785 -113.432585 26 8085ft 79kts
08-Sep-18 14:12 37.176482 -113.424139 27 8516ft 78kts
08-Sep-18 14:13 37.182562 -113.420395 27 8703ft 78kts
08-Sep-18 14:14 37.188741 -113.416600 27 8900ft 80kts
08-Sep-18 14:15 37.194930 -113.412794 27 9100ft 80kts
08-Sep-18 14:16 37.201135 -113.408974 27 9299ft 80kts
08-Sep-18 14:17 37.215578 -113.400078 28 9753ft 79kts
08-Sep-18 14:18 37.231972 -113.389980 28 10249ft 79kts
08-Sep-18 14:19 37.249897 -113.378840 29 10502ft 102kts
08-Sep-18 14:20 37.273300 -113.364169 28 10499ft 116kts
08-Sep-18 14:21 37.293978 -113.351526 26 10499ft 118kts
08-Sep-18 14:22 37.316913 -113.337556 28 10500ft 117kts
08-Sep-18 14:23 37.345773 -113.319741 28 10500ft 116kts
08-Sep-18 14:24 37.374188 -113.302154 28 10500ft 116kts
08-Sep-18 14:25 37.402765 -113.284450 28 10500ft 116kts
08-Sep-18 14:26 37.431890 -113.266399 28 10500ft 116kts
08-Sep-18 14:27 37.460857 -113.248422 28 10500ft 116kts
08-Sep-18 14:28 37.489926 -113.230351 28 10500ft 116kts
08-Sep-18 14:29 37.518966 -113.212290 28 10500ft 116kts
08-Sep-18 14:30 37.547908 -113.194280 28 10484ft 118kts
08-Sep-18 14:31 37.577845 -113.175619 28 10399ft 118kts
08-Sep-18 14:32 37.606933 -113.157496 28 10399ft 117kts
08-Sep-18 14:33 37.636017 -113.139357 28 10399ft 116kts
08-Sep-18 14:34 37.665015 -113.121252 28 10399ft 116kts
08-Sep-18 14:35 37.694029 -113.103119 28 10399ft 116kts
08-Sep-18 14:36 37.715116 -113.073038 54 10399ft 115kts
08-Sep-18 14:37 37.733787 -113.040245 54 10399ft 115kts
08-Sep-18 14:38 37.751064 -113.009613 55 10399ft 115kts
08-Sep-18 14:39 37.769193 -112.977347 54 10399ft 115kts
08-Sep-18 14:40 37.787292 -112.945075 55 10399ft 115kts
08-Sep-18 14:41 37.804613 -112.914142 55 10399ft 115kts
08-Sep-18 14:42 37.823090 -112.881150 55 10399ft 115kts
08-Sep-18 14:43 37.841277 -112.848625 55 10399ft 115kts
08-Sep-18 14:44 37.859702 -112.815786 52 10398ft 115kts
08-Sep-18 14:45 37.880362 -112.784663 50 10398ft 115kts
08-Sep-18 14:46 37.901082 -112.753578 50 10398ft 115kts
08-Sep-18 14:47 37.921778 -112.722491 50 10398ft 115kts
08-Sep-18 14:48 37.942418 -112.691456 50 10398ft 115kts
08-Sep-18 14:49 37.963010 -112.660462 50 10398ft 115kts
08-Sep-18 14:50 37.983706 -112.629279 50 10398ft 115kts
08-Sep-18 14:51 38.004303 -112.598217 50 10398ft 115kts
08-Sep-18 14:52 38.024964 -112.567028 50 10398ft 115kts
08-Sep-18 14:53 38.045585 -112.535869 50 10398ft 115kts
08-Sep-18 14:54 38.066187 -112.504706 50 10398ft 115kts
08-Sep-18 14:55 38.086819 -112.473466 50 10398ft 115kts
08-Sep-18 14:56 38.107135 -112.442682 50 10399ft 115kts
08-Sep-18 14:57 38.127723 -112.411456 50 10399ft 115kts
08-Sep-18 14:58 38.148321 -112.380180 50 10399ft 115kts
08-Sep-18 14:59 38.168741 -112.349148 50 10399ft 115kts
08-Sep-18 15:00 38.189304 -112.317866 50 10400ft 116kts
08-Sep-18 15:01 38.209931 -112.286455 50 10400ft 116kts
08-Sep-18 15:02 38.230550 -112.255029 50 10400ft 116kts
08-Sep-18 15:03 38.252834 -112.226193 19 10399ft 117kts
08-Sep-18 15:04 38.284764 -112.216733 14 10399ft 118kts
08-Sep-18 15:05 38.316858 -112.208443 13 10399ft 118kts
08-Sep-18 15:06 38.349048 -112.200235 13 10399ft 118kts
08-Sep-18 15:07 38.381154 -112.192049 13 10399ft 118kts
08-Sep-18 15:08 38.413295 -112.183844 13 10399ft 118kts
08-Sep-18 15:09 38.445731 -112.177911 0 10399ft 119kts
08-Sep-18 15:10 38.477886 -112.180056 360 10324ft 113kts
08-Sep-18 15:11 38.508285 -112.177058 10 9981ft 106kts
08-Sep-18 15:12 38.537508 -112.171612 13 9330ft 107kts
08-Sep-18 15:13 38.566542 -112.164198 13 8632ft 107kts
08-Sep-18 15:14 38.595656 -112.156385 13 7907ft 108kts
08-Sep-18 15:15 38.624720 -112.148202 13 7005ft 107kts
08-Sep-18 15:16 38.652919 -112.140087 9 6328ft 99kts
08-Sep-18 15:17 38.679078 -112.131991 13 6014ft 94kts
08-Sep-18 15:18 38.703757 -112.121303 25 5988ft 88kts
08-Sep-18 15:19 38.721340 -112.107899 18 5474ft 63kts
08-Sep-18 15:20 38.734845 -112.099921 24 5286ft 28kts
08-Sep-18 15:21 38.736289 -112.098458 115 5283ft 0kts
08-Sep-18 15:22 38.736020 -112.098383 200 5283ft 0kts
08-Sep-18 15:23 38.736020 -112.098383 200 5283ft 0kts
08-Sep-18 15:24 38.736020 -112.098383 200 5283ft 0kts
08-Sep-18 15:25 38.736020 -112.098383 200 5283ft 0kts

Navigation Log

Ident Type
Flight plan parsing failed, navigation log unavailable